Time;durP1;ratioP1;P1;durP2;ratioP2;P2;SDS_P1;SDS_P2;PMS_P1;PMS_P2;Temp;Humidity;BMP_temperature;BMP_pressure;BME280_temperature;BME280_humidity;BME280_pressure;Samples;Min_cycle;Max_cycle;Signal;HPM_P1;HPM_P2
2022/12/25 00:01:21;;;;;;;15.70;6.40;;;11.50;99.90;;;;;;5134312;28;20226;-93
2022/12/25 00:03:48;;;;;;;10.57;5.93;;;11.50;99.90;;;;;;5148530;27;20197;-90
2022/12/25 00:06:15;;;;;;;12.50;5.77;;;11.50;99.90;;;;;;5154584;27;20217;-89
2022/12/25 00:08:42;;;;;;;13.03;6.40;;;11.50;99.90;;;;;;5153732;27;20207;-91
2022/12/25 00:11:12;;;;;;;13.23;5.93;;;11.40;99.90;;;;;;5154772;27;20205;-93
2022/12/25 00:13:41;;;;;;;10.73;5.03;;;11.40;99.90;;;;;;5154707;27;20529;-80
2022/12/25 00:16:10;;;;;;;13.67;5.90;;;11.40;99.90;;;;;;5154120;27;20197;-84
2022/12/25 00:18:37;;;;;;;13.23;5.20;;;11.40;99.90;;;;;;5154631;27;20212;-77
2022/12/25 00:21:07;;;;;;;11.87;5.33;;;11.40;99.90;;;;;;5154875;27;20193;-87
2022/12/25 00:23:35;;;;;;;13.53;5.40;;;11.40;99.90;;;;;;5157487;27;20432;-77
2022/12/25 00:26:04;;;;;;;10.20;4.67;;;11.40;99.90;;;;;;5158549;27;20228;-88
2022/12/25 00:28:31;;;;;;;10.60;4.57;;;11.40;99.90;;;;;;5159087;27;20211;-93
2022/12/25 00:30:59;;;;;;;8.77;4.37;;;11.40;99.90;;;;;;5158593;27;20223;-92
2022/12/25 00:33:26;;;;;;;9.23;4.10;;;11.40;99.90;;;;;;5158819;27;20189;-90
2022/12/25 00:36:00;;;;;;;8.07;4.03;;;11.30;99.90;;;;;;5158282;27;20201;-78
2022/12/25 00:38:28;;;;;;;13.30;3.87;;;11.30;99.90;;;;;;5158117;27;20211;-76
2022/12/25 00:40:55;;;;;;;9.30;3.87;;;11.30;99.90;;;;;;5158286;27;20197;-77
2022/12/25 00:43:22;;;;;;;4.93;3.30;;;11.30;99.90;;;;;;5157981;27;20200;-87
2022/12/25 00:45:57;;;;;;;8.97;4.07;;;11.20;99.90;;;;;;5158406;27;20239;-87
2022/12/25 00:48:25;;;;;;;8.13;3.50;;;11.20;99.90;;;;;;5158402;27;20228;-76
2022/12/25 00:50:55;;;;;;;11.17;4.37;;;11.30;99.90;;;;;;5157941;27;20209;-88
2022/12/25 00:53:22;;;;;;;6.60;3.53;;;11.40;99.90;;;;;;5157937;27;20201;-85
2022/12/25 00:55:56;;;;;;;14.37;4.37;;;11.30;99.90;;;;;;5157643;27;20213;-93
2022/12/25 00:58:23;;;;;;;8.43;3.60;;;11.30;99.90;;;;;;5158097;27;20190;-92
2022/12/25 01:00:50;;;;;;;11.30;3.77;;;11.30;99.90;;;;;;5157479;27;20577;-92
2022/12/25 01:03:18;;;;;;;7.40;3.50;;;11.30;99.90;;;;;;5157989;27;20189;-76
2022/12/25 01:05:57;;;;;;;9.27;4.70;;;11.40;99.90;;;;;;5156255;27;20438;-82
2022/12/25 01:08:24;;;;;;;8.10;3.90;;;11.40;99.90;;;;;;5157933;27;20197;-93
2022/12/25 01:10:54;;;;;;;12.40;4.30;;;11.40;99.90;;;;;;5116717;28;20217;-89
2022/12/25 01:13:21;;;;;;;9.83;4.17;;;11.50;99.90;;;;;;5116012;28;20206;-91
2022/12/25 01:15:48;;;;;;;11.87;4.23;;;11.50;99.90;;;;;;5116211;28;20607;-77
2022/12/25 01:18:14;;;;;;;6.80;3.73;;;11.60;99.90;;;;;;5116885;28;20228;-80
2022/12/25 01:20:41;;;;;;;6.73;3.83;;;11.60;99.90;;;;;;5116047;28;20215;-91
2022/12/25 01:23:09;;;;;;;8.77;4.20;;;11.60;99.90;;;;;;5116193;28;20218;-91
2022/12/25 01:25:36;;;;;;;8.03;3.80;;;11.70;99.90;;;;;;5115700;28;20250;-87
2022/12/25 01:28:05;;;;;;;9.90;3.57;;;11.80;99.90;;;;;;5116363;28;20191;-93
2022/12/25 01:30:31;;;;;;;9.77;4.23;;;11.80;99.90;;;;;;5116150;28;20809;-90
2022/12/25 01:33:00;;;;;;;12.73;4.40;;;11.80;99.90;;;;;;5115878;28;20192;-92
2022/12/25 01:35:27;;;;;;;12.93;4.73;;;11.90;99.90;;;;;;5116072;28;20275;-80
2022/12/25 01:37:54;;;;;;;9.00;4.10;;;11.80;99.90;;;;;;5116113;28;20200;-77
2022/12/25 01:40:22;;;;;;;7.47;4.43;;;11.80;99.90;;;;;;5116254;28;20188;-77
2022/12/25 01:42:49;;;;;;;9.67;3.97;;;11.80;99.90;;;;;;5116463;28;20203;-91
2022/12/25 01:45:32;;;;;;;7.37;4.10;;;11.70;99.90;;;;;;5116059;28;20295;-76
2022/12/25 01:48:06;;;;;;;7.97;4.33;;;11.70;99.90;;;;;;5116321;28;20207;-92
2022/12/25 01:50:35;;;;;;;8.33;4.17;;;11.70;99.90;;;;;;5115547;28;20207;-77
2022/12/25 01:53:03;;;;;;;8.90;4.57;;;11.60;99.90;;;;;;5116140;28;20210;-77
2022/12/25 01:55:32;;;;;;;8.53;4.03;;;11.70;99.90;;;;;;5115444;28;20199;-85
2022/12/25 01:57:59;;;;;;;7.67;4.10;;;11.60;99.90;;;;;;5115603;28;20203;-75
2022/12/25 02:00:26;;;;;;;8.13;4.00;;;11.60;99.90;;;;;;5115462;28;20377;-90
2022/12/25 02:02:53;;;;;;;7.20;3.60;;;11.60;99.90;;;;;;5115794;28;20207;-77
2022/12/25 02:05:28;;;;;;;9.60;4.33;;;11.60;99.90;;;;;;5114739;28;20238;-77
2022/12/25 02:07:55;;;;;;;10.97;4.10;;;11.60;99.90;;;;;;5115114;28;20204;-82
2022/12/25 02:10:28;;;;;;;12.13;4.20;;;11.50;99.90;;;;;;5115403;28;20204;-92
2022/12/25 02:12:57;;;;;;;6.50;3.67;;;11.60;99.90;;;;;;5115661;28;20198;-82
2022/12/25 02:15:31;;;;;;;10.63;4.13;;;11.60;99.90;;;;;;5115326;28;20207;-86
2022/12/25 02:18:07;;;;;;;9.87;4.23;;;11.50;99.90;;;;;;5115343;28;20200;-92
2022/12/25 02:21:23;;;;;;;9.53;4.70;;;11.40;99.90;;;;;;5115277;28;20268;-92
2022/12/25 02:24:13;;;;;;;6.07;3.90;;;11.40;99.90;;;;;;5114879;28;20222;-78
2022/12/25 02:26:59;;;;;;;9.67;4.17;;;11.50;99.90;;;;;;5114899;28;20215;-80
2022/12/25 02:29:34;;;;;;;9.20;4.97;;;11.50;99.90;;;;;;5114504;28;20433;-80
2022/12/25 02:32:07;;;;;;;7.30;3.73;;;11.60;99.90;;;;;;5114980;28;20204;-84
2022/12/25 02:34:40;;;;;;;7.70;4.27;;;11.60;99.90;;;;;;5114602;28;20214;-77
2022/12/25 02:37:12;;;;;;;7.47;3.27;;;11.60;99.90;;;;;;5114305;28;20195;-76
2022/12/25 02:39:57;;;;;;;11.10;3.40;;;11.70;99.90;;;;;;5115105;28;20208;-76
2022/12/25 03:07:41;;;;;;;5.17;2.10;;;11.00;99.90;;;;;;5118072;28;20194;-87
2022/12/25 03:13:01;;;;;;;6.35;2.65;;;10.90;99.90;;;;;;5116333;28;20911;-86
2022/12/25 03:18:19;;;;;;;5.53;2.57;;;11.10;99.90;;;;;;5116184;28;20198;-92
2022/12/25 03:29:04;;;;;;;5.33;2.10;;;11.10;99.90;;;;;;5113943;28;20200;-92
2022/12/25 03:31:39;;;;;;;6.00;2.20;;;11.20;99.90;;;;;;5113716;28;20198;-92
2022/12/25 04:38:33;;;;;;;4.83;2.13;;;11.00;99.90;;;;;;5136919;27;20277;-92
2022/12/25 04:41:01;;;;;;;3.53;2.23;;;11.10;99.90;;;;;;5137415;27;20197;-76
2022/12/25 04:43:28;;;;;;;2.93;1.93;;;11.00;99.90;;;;;;5123271;27;20195;-77
2022/12/25 04:45:56;;;;;;;5.63;2.63;;;11.00;99.90;;;;;;5136139;27;20217;-79
2022/12/25 04:48:23;;;;;;;5.63;2.30;;;11.00;99.90;;;;;;5137326;27;20201;-77
2022/12/25 04:50:51;;;;;;;5.30;2.27;;;11.00;99.90;;;;;;5136719;27;20210;-80
2022/12/25 04:53:18;;;;;;;4.00;2.50;;;11.10;99.90;;;;;;5123427;27;20206;-80
2022/12/25 04:55:45;;;;;;;3.90;2.10;;;11.10;99.90;;;;;;5136895;27;20198;-76
2022/12/25 04:58:13;;;;;;;8.30;2.53;;;11.20;99.90;;;;;;5124182;27;20212;-92
2022/12/25 05:00:40;;;;;;;8.37;2.80;;;11.10;99.90;;;;;;5137088;27;20195;-75
2022/12/25 05:03:07;;;;;;;6.63;2.63;;;11.20;99.90;;;;;;5136942;27;20213;-90
2022/12/25 05:05:39;;;;;;;4.57;2.90;;;11.10;99.90;;;;;;5136780;27;20596;-87
2022/12/25 05:08:06;;;;;;;7.80;2.90;;;11.00;99.90;;;;;;5139471;27;20190;-85
2022/12/25 05:10:33;;;;;;;3.63;2.47;;;11.00;99.90;;;;;;5142277;27;20189;-76
2022/12/25 05:13:00;;;;;;;3.40;2.30;;;11.00;99.90;;;;;;5151845;27;20204;-77
2022/12/25 05:15:28;;;;;;;4.97;2.80;;;10.90;99.90;;;;;;5124044;27;20216;-92
2022/12/25 05:17:54;;;;;;;3.93;2.30;;;11.00;99.90;;;;;;5127542;27;20542;-92
2022/12/25 05:20:27;;;;;;;3.93;2.33;;;11.00;99.90;;;;;;5139535;27;20194;-92
2022/12/25 05:22:55;;;;;;;3.70;2.53;;;11.00;99.90;;;;;;5136924;27;20190;-82
2022/12/25 05:25:22;;;;;;;5.40;2.73;;;11.00;99.90;;;;;;5140167;27;20224;-75
2022/12/25 05:27:48;;;;;;;6.03;2.60;;;11.00;99.90;;;;;;5145820;27;20215;-90
2022/12/25 05:30:15;;;;;;;3.97;2.67;;;10.90;99.90;;;;;;5118702;27;20209;-87
2022/12/25 05:32:43;;;;;;;7.93;2.90;;;10.90;99.90;;;;;;5127387;27;20197;-90
2022/12/25 05:35:10;;;;;;;3.47;2.60;;;11.00;99.90;;;;;;5136338;27;20201;-75
2022/12/25 05:37:37;;;;;;;4.93;2.83;;;11.00;99.90;;;;;;5139011;27;20279;-92
2022/12/25 05:40:05;;;;;;;5.97;2.50;;;11.10;99.90;;;;;;5153664;27;20205;-92
2022/12/25 05:42:32;;;;;;;6.17;2.80;;;11.10;99.90;;;;;;5139240;27;20205;-92
2022/12/25 05:44:58;;;;;;;5.93;2.80;;;11.10;99.90;;;;;;5134346;27;20206;-91
2022/12/25 05:47:25;;;;;;;6.33;3.40;;;11.00;99.90;;;;;;5131696;27;20221;-92
2022/12/25 05:49:53;;;;;;;7.70;2.87;;;11.10;99.90;;;;;;5139783;27;20200;-83
2022/12/25 05:52:20;;;;;;;5.83;2.70;;;11.00;99.90;;;;;;5137992;27;20213;-86
2022/12/25 05:54:47;;;;;;;4.40;2.80;;;10.90;99.90;;;;;;5135725;27;20202;-83
2022/12/25 05:57:13;;;;;;;5.70;2.50;;;11.00;99.90;;;;;;5135813;27;20556;-84
2022/12/25 05:59:40;;;;;;;4.07;2.77;;;11.10;99.90;;;;;;5129720;27;20542;-92
2022/12/25 06:02:07;;;;;;;2.87;2.47;;;11.20;99.90;;;;;;5128555;27;20568;-76
2022/12/25 06:04:34;;;;;;;3.87;2.80;;;11.30;99.90;;;;;;5129780;27;20199;-89
2022/12/25 06:07:02;;;;;;;4.13;2.70;;;11.30;99.90;;;;;;5128365;27;20259;-88
2022/12/25 06:09:29;;;;;;;4.73;2.70;;;11.40;99.90;;;;;;5135750;27;20203;-79
2022/12/25 06:11:55;;;;;;;6.97;2.77;;;11.50;99.90;;;;;;5121684;27;20229;-91
2022/12/25 06:14:22;;;;;;;4.53;2.47;;;11.50;99.90;;;;;;5135468;27;20226;-81
2022/12/25 06:16:51;;;;;;;3.93;2.80;;;11.40;99.90;;;;;;5135089;27;20209;-75
2022/12/25 06:19:18;;;;;;;4.00;2.97;;;11.10;99.90;;;;;;5122322;27;20197;-92
2022/12/25 06:21:45;;;;;;;5.27;2.83;;;11.10;99.90;;;;;;5135376;27;20200;-92
2022/12/25 06:24:13;;;;;;;4.87;2.63;;;11.20;99.90;;;;;;5139141;27;20206;-92
2022/12/25 06:26:39;;;;;;;5.73;2.60;;;11.20;99.90;;;;;;5138393;27;20222;-89
2022/12/25 06:29:06;;;;;;;4.00;2.53;;;11.30;99.90;;;;;;5138773;27;20245;-87
2022/12/25 06:31:33;;;;;;;6.47;2.50;;;11.40;99.90;;;;;;5139431;27;20187;-76
2022/12/25 06:34:00;;;;;;;3.33;2.13;;;11.50;99.90;;;;;;5138893;27;20209;-83
2022/12/25 06:36:28;;;;;;;2.83;2.30;;;11.50;99.90;;;;;;5139272;27;20202;-82
2022/12/25 06:38:55;;;;;;;5.53;2.50;;;11.40;99.90;;;;;;5134984;27;20209;-85
2022/12/25 06:41:25;;;;;;;4.43;2.60;;;11.40;99.90;;;;;;5134639;27;20206;-75
2022/12/25 06:43:54;;;;;;;4.10;2.83;;;11.40;99.90;;;;;;5135065;27;20198;-91
2022/12/25 06:46:22;;;;;;;3.72;3.05;;;11.40;99.90;;;;;;5120061;27;20450;-78
2022/12/25 06:48:49;;;;;;;3.50;2.40;;;11.40;99.90;;;;;;5135025;27;20207;-78
2022/12/25 06:51:17;;;;;;;6.27;2.93;;;11.30;99.90;;;;;;5135057;27;20255;-76
2022/12/25 06:53:44;;;;;;;3.10;2.27;;;11.40;99.90;;;;;;5123395;27;20208;-86
2022/12/25 06:56:17;;;;;;;3.80;2.80;;;11.50;99.90;;;;;;5132335;27;20199;-75
2022/12/25 06:58:47;;;;;;;3.70;2.67;;;11.30;99.90;;;;;;5122878;27;20294;-92
2022/12/25 07:01:18;;;;;;;5.07;2.70;;;11.30;99.90;;;;;;5147507;27;20203;-76
2022/12/25 07:03:46;;;;;;;6.33;2.60;;;11.40;99.90;;;;;;5134503;27;20205;-77
2022/12/25 07:06:13;;;;;;;5.10;2.73;;;11.50;99.90;;;;;;5134384;27;20234;-89
2022/12/25 07:08:40;;;;;;;5.50;2.90;;;11.50;99.90;;;;;;5120742;27;20248;-76
2022/12/25 07:11:07;;;;;;;3.30;3.00;;;11.50;99.90;;;;;;5134484;27;20226;-80
2022/12/25 07:13:34;;;;;;;4.93;3.07;;;11.40;99.90;;;;;;5134699;27;20203;-92
2022/12/25 07:16:06;;;;;;;5.77;3.40;;;11.30;99.90;;;;;;5134314;27;20203;-78
2022/12/25 07:18:34;;;;;;;4.77;3.57;;;11.30;99.90;;;;;;5120618;27;20286;-76
2022/12/25 07:21:06;;;;;;;5.23;3.20;;;11.30;99.90;;;;;;5134528;27;20206;-88
2022/12/25 07:23:33;;;;;;;5.37;3.33;;;11.30;99.90;;;;;;5129215;27;20202;-87
2022/12/25 07:26:00;;;;;;;5.03;3.33;;;11.30;99.90;;;;;;5125572;27;20240;-76
2022/12/25 07:28:27;;;;;;;4.37;3.33;;;11.20;99.90;;;;;;5134548;27;20198;-77
2022/12/25 07:30:54;;;;;;;4.30;3.20;;;11.20;99.90;;;;;;5133633;27;20212;-91
2022/12/25 07:33:22;;;;;;;5.73;3.53;;;11.20;99.90;;;;;;5134402;27;20210;-75
2022/12/25 07:35:49;;;;;;;4.33;3.97;;;11.10;99.90;;;;;;5121704;27;20211;-86
2022/12/25 07:38:16;;;;;;;3.47;3.17;;;11.10;99.90;;;;;;5132666;27;20632;-84
2022/12/25 07:40:45;;;;;;;4.43;3.63;;;11.00;99.90;;;;;;5134113;27;20209;-92
2022/12/25 07:43:12;;;;;;;5.93;3.80;;;11.00;99.90;;;;;;5120122;27;20206;-84
2022/12/25 07:45:39;;;;;;;4.17;3.60;;;11.00;99.90;;;;;;5123553;27;20214;-88
2022/12/25 07:48:06;;;;;;;5.93;3.80;;;11.00;99.90;;;;;;5131249;28;20206;-87
2022/12/25 07:50:34;;;;;;;5.53;3.87;;;11.20;99.90;;;;;;5133975;28;20217;-75
2022/12/25 07:53:02;;;;;;;6.70;4.30;;;11.20;99.90;;;;;;5133446;28;20212;-76
2022/12/25 07:55:29;;;;;;;5.10;4.17;;;11.30;99.90;;;;;;5122630;28;20207;-77
2022/12/25 07:57:56;;;;;;;7.23;4.70;;;11.30;99.90;;;;;;5132054;28;20214;-79
2022/12/25 08:00:28;;;;;;;5.82;4.72;;;11.20;99.90;;;;;;5133867;28;20427;-75
2022/12/25 08:02:55;;;;;;;4.73;4.17;;;11.10;99.90;;;;;;5133588;27;20220;-92
2022/12/25 08:05:22;;;;;;;6.67;4.57;;;11.10;99.90;;;;;;5133687;28;20259;-75
2022/12/25 08:07:53;;;;;;;6.17;4.23;;;11.10;99.90;;;;;;5133642;27;20225;-85
2022/12/25 08:10:20;;;;;;;5.03;4.33;;;11.00;99.90;;;;;;5128583;27;20248;-76
2022/12/25 08:12:46;;;;;;;6.47;4.37;;;11.00;99.90;;;;;;5130310;28;20195;-80
2022/12/25 08:15:13;;;;;;;4.87;3.97;;;11.00;99.90;;;;;;5127636;28;20195;-76
2022/12/25 08:17:40;;;;;;;5.63;4.37;;;11.00;99.90;;;;;;5129810;28;20197;-81
2022/12/25 08:20:08;;;;;;;7.70;4.40;;;11.00;99.90;;;;;;5127908;28;20199;-77
2022/12/25 08:22:35;;;;;;;9.40;4.63;;;10.90;99.90;;;;;;5119548;28;20211;-76
2022/12/25 08:25:04;;;;;;;4.80;4.27;;;10.90;99.90;;;;;;5133242;27;20202;-78
2022/12/25 08:27:30;;;;;;;8.00;5.70;;;10.90;99.90;;;;;;5132113;28;20446;-84
2022/12/25 08:29:57;;;;;;;7.57;5.03;;;10.90;99.90;;;;;;5136622;27;20217;-94
2022/12/25 08:32:24;;;;;;;7.37;4.83;;;10.70;99.90;;;;;;5136479;27;20210;-78
2022/12/25 08:34:51;;;;;;;4.93;4.43;;;10.80;99.90;;;;;;5123018;28;20230;-94
2022/12/25 08:37:19;;;;;;;8.60;4.40;;;10.90;99.90;;;;;;5130339;28;20226;-87
2022/12/25 08:39:46;;;;;;;8.60;4.57;;;11.00;99.90;;;;;;5132088;27;20206;-75
2022/12/25 08:42:14;;;;;;;7.17;4.77;;;11.10;99.90;;;;;;5129080;27;20203;-75
2022/12/25 08:44:41;;;;;;;9.07;5.50;;;11.00;99.90;;;;;;5133378;27;20194;-75
2022/12/25 08:47:08;;;;;;;5.80;5.20;;;11.00;99.90;;;;;;5132716;27;20246;-91
2022/12/25 08:49:34;;;;;;;9.17;4.70;;;11.00;99.90;;;;;;5134919;27;20198;-76
2022/12/25 08:52:01;;;;;;;10.05;6.60;;;11.00;99.90;;;;;;5130410;27;20444;-81
2022/12/25 08:54:30;;;;;;;6.90;4.93;;;11.10;99.90;;;;;;5130167;27;20209;-76
2022/12/25 08:56:57;;;;;;;8.03;5.53;;;11.10;99.90;;;;;;5133109;27;20209;-75
2022/12/25 08:59:25;;;;;;;9.23;5.73;;;11.20;99.90;;;;;;5136334;27;20206;-78
2022/12/25 09:01:52;;;;;;;6.93;5.33;;;11.20;99.90;;;;;;5135759;27;20196;-76
2022/12/25 09:04:19;;;;;;;6.30;4.87;;;11.20;99.90;;;;;;5135018;27;20195;-92
2022/12/25 09:06:45;;;;;;;9.37;5.40;;;11.20;99.90;;;;;;5134943;27;20221;-76
2022/12/25 09:09:12;;;;;;;6.67;5.43;;;11.20;99.90;;;;;;5135613;27;20206;-76
2022/12/25 09:11:39;;;;;;;8.97;5.03;;;11.20;99.90;;;;;;5135348;27;20223;-76
2022/12/25 09:14:06;;;;;;;7.73;5.63;;;11.30;99.90;;;;;;5134931;27;20652;-75
2022/12/25 09:16:34;;;;;;;9.70;5.40;;;11.30;99.90;;;;;;5133449;27;20241;-75
2022/12/25 09:19:00;;;;;;;9.80;7.20;;;11.30;99.90;;;;;;5129300;27;20455;-76
2022/12/25 09:21:27;;;;;;;10.07;6.07;;;11.30;99.90;;;;;;5135492;27;20198;-82
2022/12/25 09:23:54;;;;;;;13.80;6.37;;;11.20;99.90;;;;;;5135710;27;20198;-92
2022/12/25 09:26:22;;;;;;;9.70;6.57;;;11.10;99.90;;;;;;5135800;27;20197;-75
2022/12/25 09:28:50;;;;;;;13.20;6.30;;;11.10;99.90;;;;;;5136635;27;20201;-76
2022/12/25 09:31:18;;;;;;;12.63;6.60;;;11.10;99.90;;;;;;5131539;27;20226;-76
2022/12/25 09:33:46;;;;;;;11.83;6.60;;;11.00;99.90;;;;;;5150211;27;20212;-91
2022/12/25 09:36:14;;;;;;;8.83;6.57;;;11.00;99.90;;;;;;5133499;27;20208;-91
2022/12/25 09:38:44;;;;;;;11.50;6.77;;;11.10;99.90;;;;;;5137071;27;20671;-90
2022/12/25 09:41:19;;;;;;;9.50;6.60;;;11.20;99.90;;;;;;5130409;27;20213;-91
2022/12/25 09:43:54;;;;;;;10.83;6.70;;;11.20;99.90;;;;;;5142618;27;20202;-87
2022/12/25 09:46:25;;;;;;;9.97;6.03;;;11.20;99.90;;;;;;5136903;27;20281;-87
2022/12/25 09:49:06;;;;;;;9.23;5.90;;;11.20;99.90;;;;;;5136867;27;20653;-91
2022/12/25 09:51:39;;;;;;;10.37;5.90;;;11.30;99.90;;;;;;5124806;27;20220;-89
2022/12/25 09:54:12;;;;;;;9.70;6.13;;;11.20;99.90;;;;;;5128847;27;20210;-88
2022/12/25 09:56:40;;;;;;;11.60;7.63;;;11.30;99.90;;;;;;5123655;27;20209;-91
2022/12/25 09:59:18;;;;;;;11.33;6.67;;;11.20;99.90;;;;;;5132456;27;20199;-91
2022/12/25 10:02:00;;;;;;;11.93;6.40;;;11.20;99.90;;;;;;5128313;27;20218;-88
2022/12/25 10:04:50;;;;;;;8.40;6.60;;;11.20;99.90;;;;;;5115886;28;20227;-90
2022/12/25 10:07:34;;;;;;;9.43;6.13;;;11.30;99.90;;;;;;5114350;27;20239;-88
2022/12/25 10:10:16;;;;;;;9.27;6.37;;;11.40;99.90;;;;;;5107273;27;20745;-89
2022/12/25 10:12:57;;;;;;;6.50;5.90;;;11.40;99.90;;;;;;5150284;27;20726;-89
2022/12/25 10:15:46;;;;;;;11.90;6.60;;;11.40;99.90;;;;;;5136164;27;20206;-89
2022/12/25 10:18:43;;;;;;;7.47;6.23;;;11.40;99.90;;;;;;5127670;27;20218;-88
2022/12/25 10:21:41;;;;;;;11.27;8.87;;;11.40;99.90;;;;;;5131776;27;20704;-88
2022/12/25 10:24:26;;;;;;;11.07;7.47;;;11.40;99.90;;;;;;5127811;27;20221;-92
2022/12/25 10:26:56;;;;;;;11.80;7.27;;;11.50;99.90;;;;;;5110908;28;20750;-91
2022/12/25 10:29:24;;;;;;;9.90;6.40;;;11.40;99.90;;;;;;5124574;27;20202;-86
2022/12/25 10:31:55;;;;;;;12.13;6.97;;;11.30;99.90;;;;;;5124493;27;20214;-87
2022/12/25 10:34:23;;;;;;;7.63;6.93;;;11.30;99.90;;;;;;5149885;27;20238;-91
2022/12/25 10:36:54;;;;;;;9.77;7.20;;;11.40;99.90;;;;;;5135291;27;20211;-87
2022/12/25 10:39:26;;;;;;;10.30;6.70;;;11.50;99.90;;;;;;5135346;27;20685;-87
2022/12/25 10:42:10;;;;;;;15.00;10.47;;;11.50;99.90;;;;;;5134763;27;20423;-90
2022/12/25 10:44:37;;;;;;;16.50;8.47;;;11.70;99.90;;;;;;5131352;27;20210;-86
2022/12/25 10:47:10;;;;;;;12.60;8.83;;;11.80;99.90;;;;;;5135891;27;20234;-90
2022/12/25 10:49:39;;;;;;;11.87;8.27;;;11.80;99.90;;;;;;5134193;27;20650;-87
2022/12/25 10:52:19;;;;;;;14.97;9.63;;;11.80;99.90;;;;;;5133757;27;20219;-87
2022/12/25 10:54:49;;;;;;;13.27;9.67;;;11.80;99.90;;;;;;5129827;27;20203;-87
2022/12/25 10:57:20;;;;;;;13.63;9.63;;;11.70;99.90;;;;;;5122949;27;20230;-87
2022/12/25 10:59:51;;;;;;;13.60;10.13;;;11.70;99.90;;;;;;5120699;27;20217;-89
2022/12/25 11:02:24;;;;;;;15.77;10.13;;;11.50;99.90;;;;;;5126855;27;20211;-87
2022/12/25 11:04:57;;;;;;;12.57;10.00;;;11.60;99.90;;;;;;5126523;27;20209;-87
2022/12/25 11:07:33;;;;;;;17.45;12.13;;;11.60;99.90;;;;;;5129477;27;20446;-88
2022/12/25 11:10:05;;;;;;;16.30;10.43;;;11.60;99.90;;;;;;5097790;28;20211;-86
2022/12/25 11:12:36;;;;;;;16.67;10.80;;;11.70;99.90;;;;;;5100243;28;20212;-89
2022/12/25 11:15:07;;;;;;;16.90;10.57;;;11.80;99.90;;;;;;5129524;27;20236;-86
2022/12/25 11:17:35;;;;;;;14.10;11.23;;;11.80;99.90;;;;;;5135229;27;20222;-86
2022/12/25 11:20:15;;;;;;;13.97;12.17;;;11.80;99.90;;;;;;5121678;27;20211;-89
2022/12/25 11:22:46;;;;;;;17.77;11.83;;;11.70;99.90;;;;;;5134747;27;20195;-87
2022/12/25 11:25:22;;;;;;;18.63;14.50;;;11.80;99.90;;;;;;5134431;27;20199;-86
2022/12/25 11:27:57;;;;;;;18.63;14.50;;;11.70;99.90;;;;;;5126458;27;20716;-90
2022/12/25 11:30:26;;;;;;;21.57;15.93;;;11.70;99.90;;;;;;5130976;27;20202;-89
2022/12/25 11:32:58;;;;;;;20.43;16.23;;;11.70;99.90;;;;;;5117450;27;20202;-87
2022/12/25 11:35:30;;;;;;;21.87;15.50;;;11.70;99.90;;;;;;5129301;27;20204;-87
2022/12/25 11:38:01;;;;;;;20.23;15.00;;;11.70;99.90;;;;;;5119903;27;20232;-87
2022/12/25 11:40:34;;;;;;;17.70;13.30;;;11.60;99.90;;;;;;5142095;27;20199;-87
2022/12/25 11:43:13;;;;;;;22.20;13.97;;;11.60;99.90;;;;;;5148449;27;20564;-89
2022/12/25 11:45:48;;;;;;;18.67;13.10;;;11.60;99.90;;;;;;5135569;27;20218;-94
2022/12/25 11:48:26;;;;;;;22.17;17.60;;;11.50;99.90;;;;;;5133229;28;20435;-94
2022/12/25 11:51:16;;;;;;;15.53;12.90;;;11.60;99.90;;;;;;5133467;28;20213;-92
2022/12/25 11:53:48;;;;;;;16.17;11.63;;;11.50;99.90;;;;;;5120165;28;20223;-93
2022/12/25 11:56:18;;;;;;;15.13;11.77;;;11.50;99.90;;;;;;5145350;27;20210;-88
2022/12/25 11:58:49;;;;;;;19.37;12.80;;;11.50;99.90;;;;;;5134756;27;20214;-89
2022/12/25 12:01:28;;;;;;;18.23;10.83;;;11.30;99.90;;;;;;5126285;28;20206;-91
2022/12/25 12:04:00;;;;;;;18.03;10.60;;;11.30;99.90;;;;;;5117732;28;20226;-92
2022/12/25 12:06:49;;;;;;;15.68;12.85;;;11.40;99.90;;;;;;5137247;27;20430;-88
2022/12/25 12:09:30;;;;;;;13.33;9.63;;;11.50;99.90;;;;;;5122376;27;20229;-87
2022/12/25 12:12:03;;;;;;;14.83;8.80;;;11.50;99.90;;;;;;5120620;27;20192;-86
2022/12/25 12:14:41;;;;;;;12.37;8.53;;;11.50;99.90;;;;;;5134867;28;20196;-86
2022/12/25 12:17:11;;;;;;;11.20;9.30;;;11.60;99.90;;;;;;5135916;27;20197;-87
2022/12/25 12:19:38;;;;;;;11.50;8.63;;;11.50;99.90;;;;;;5139438;27;20207;-87
2022/12/25 12:22:05;;;;;;;12.60;8.90;;;11.50;99.90;;;;;;5122098;27;20289;-87
2022/12/25 12:24:37;;;;;;;12.60;8.40;;;11.50;99.90;;;;;;5120710;27;20210;-86
2022/12/25 12:27:13;;;;;;;10.87;8.53;;;11.50;99.90;;;;;;5140093;27;20203;-86
2022/12/25 12:29:43;;;;;;;11.97;8.60;;;11.50;99.90;;;;;;5139179;27;20225;-86
2022/12/25 12:32:37;;;;;;;13.87;8.60;;;11.20;99.90;;;;;;5127051;27;20206;-86
2022/12/25 12:35:14;;;;;;;8.57;7.70;;;11.40;99.90;;;;;;5120338;27;20202;-89
2022/12/25 12:37:51;;;;;;;11.17;8.60;;;11.50;99.90;;;;;;5139907;27;20206;-89
2022/12/25 12:40:31;;;;;;;10.93;8.73;;;11.60;99.90;;;;;;5131335;27;20214;-85
2022/12/25 12:43:02;;;;;;;10.87;8.13;;;11.60;99.90;;;;;;5121845;27;20198;-85
2022/12/25 12:45:32;;;;;;;9.83;8.50;;;11.60;99.90;;;;;;5127029;27;20218;-85
2022/12/25 12:47:59;;;;;;;11.23;8.67;;;11.60;99.90;;;;;;5138129;27;20223;-85
2022/12/25 12:50:35;;;;;;;12.27;8.83;;;11.50;99.90;;;;;;5135614;27;20206;-86
2022/12/25 12:53:17;;;;;;;12.97;8.63;;;11.70;99.90;;;;;;5130473;27;20217;-86
2022/12/25 12:55:49;;;;;;;12.00;10.43;;;11.70;99.90;;;;;;5142206;27;20479;-88
2022/12/25 12:58:32;;;;;;;13.00;9.33;;;11.60;99.90;;;;;;5147230;27;20211;-94
2022/12/25 13:01:11;;;;;;;9.13;8.10;;;11.70;99.90;;;;;;5147743;27;20221;-90
2022/12/25 13:04:29;;;;;;;14.37;11.17;;;11.70;99.90;;;;;;5145720;27;20206;-95
2022/12/25 13:07:04;;;;;;;10.43;8.50;;;11.70;99.90;;;;;;5082562;28;20274;-86
2022/12/25 13:09:44;;;;;;;9.93;7.97;;;11.70;99.90;;;;;;5075714;28;20216;-85
2022/12/25 13:12:13;;;;;;;9.77;7.70;;;11.70;99.90;;;;;;5133425;27;20201;-86
2022/12/25 13:14:45;;;;;;;12.70;10.60;;;11.60;99.90;;;;;;5147817;27;20428;-96
2022/12/25 13:17:16;;;;;;;9.40;8.40;;;11.70;99.90;;;;;;5126289;27;20206;-87
2022/12/25 13:19:44;;;;;;;8.27;7.40;;;11.70;99.90;;;;;;5147866;27;20206;-86
2022/12/25 13:22:26;;;;;;;9.47;7.07;;;11.70;99.90;;;;;;5138033;27;20206;-93
2022/12/25 13:24:57;;;;;;;8.63;7.30;;;11.50;99.90;;;;;;5129675;27;20199;-86
2022/12/25 13:27:31;;;;;;;8.60;7.70;;;11.40;99.90;;;;;;5109573;28;20207;-87
2022/12/25 13:29:58;;;;;;;9.53;7.87;;;11.40;99.90;;;;;;5126927;27;20231;-86
2022/12/25 13:32:28;;;;;;;11.18;10.07;;;11.40;99.90;;;;;;5127550;27;20918;-86
2022/12/25 13:34:55;;;;;;;9.23;8.33;;;11.50;99.90;;;;;;5154656;27;20214;-95
2022/12/25 13:37:25;;;;;;;10.57;8.53;;;11.50;99.90;;;;;;5118286;27;20241;-86
2022/12/25 13:39:55;;;;;;;10.93;8.73;;;11.50;99.90;;;;;;5143370;27;20216;-92
2022/12/25 13:42:23;;;;;;;10.37;8.10;;;11.50;99.90;;;;;;5155404;27;20228;-85
2022/12/25 13:44:53;;;;;;;9.40;8.40;;;11.60;99.90;;;;;;5136098;27;20567;-86
2022/12/25 13:47:24;;;;;;;8.83;8.03;;;11.60;99.90;;;;;;5105983;27;20613;-85
2022/12/25 13:49:53;;;;;;;9.43;8.47;;;11.70;99.90;;;;;;5143496;27;20224;-85
2022/12/25 13:52:24;;;;;;;8.90;8.00;;;11.70;99.90;;;;;;5143760;27;20203;-85
2022/12/25 13:54:55;;;;;;;10.97;9.17;;;11.70;99.90;;;;;;5118461;28;20276;-92
2022/12/25 13:57:26;;;;;;;10.20;8.23;;;11.60;99.90;;;;;;5137479;27;20203;-86
2022/12/25 13:59:55;;;;;;;9.43;8.33;;;11.60;99.90;;;;;;5132898;27;20227;-84
2022/12/25 14:02:28;;;;;;;11.07;8.80;;;11.50;99.90;;;;;;5146304;27;20211;-85
2022/12/25 14:04:56;;;;;;;9.93;8.77;;;11.60;99.90;;;;;;5136056;27;20645;-88
2022/12/25 14:07:24;;;;;;;9.90;8.90;;;11.70;99.90;;;;;;5152189;27;20292;-89
2022/12/25 14:09:57;;;;;;;10.20;9.13;;;11.80;99.90;;;;;;5154675;27;20226;-85
2022/12/25 14:12:25;;;;;;;10.83;9.03;;;11.70;99.90;;;;;;5117690;27;20199;-87
2022/12/25 14:14:54;;;;;;;9.90;8.90;;;11.70;99.90;;;;;;5135641;27;20207;-86
2022/12/25 14:17:22;;;;;;;12.43;9.77;;;11.80;99.90;;;;;;5135877;27;20202;-91
2022/12/25 14:19:57;;;;;;;10.27;8.83;;;11.90;99.90;;;;;;5130854;27;20202;-85
2022/12/25 14:22:26;;;;;;;11.27;9.20;;;12.00;99.90;;;;;;5129168;27;20203;-85
2022/12/25 14:24:54;;;;;;;10.47;9.33;;;11.90;99.90;;;;;;5142325;27;20194;-87
2022/12/25 14:27:24;;;;;;;10.87;9.20;;;12.00;99.90;;;;;;5110233;27;20249;-85
2022/12/25 14:29:55;;;;;;;10.05;8.93;;;12.10;99.90;;;;;;5135491;27;20906;-84
2022/12/25 14:32:24;;;;;;;11.83;9.67;;;12.10;99.90;;;;;;5104166;27;20207;-86
2022/12/25 14:34:53;;;;;;;11.77;9.90;;;12.10;99.90;;;;;;5136444;27;20207;-87
2022/12/25 14:37:22;;;;;;;12.57;9.77;;;12.00;99.90;;;;;;5117610;27;20715;-86
2022/12/25 14:40:00;;;;;;;14.33;10.17;;;12.00;99.90;;;;;;5135397;27;20204;-85
2022/12/25 14:42:29;;;;;;;11.57;10.47;;;12.00;99.90;;;;;;5134403;27;20206;-84
2022/12/25 14:45:03;;;;;;;12.93;11.47;;;12.10;99.90;;;;;;5136433;27;20650;-86